createdAt,value
2023-05-02T00:00:29.234Z,9.3394
2023-05-02T00:01:37.366Z,9.2011
2023-05-02T00:02:45.629Z,9.2488
2023-05-02T00:03:53.426Z,9.2349
2023-05-02T00:05:01.303Z,8.9696
2023-05-02T00:06:09.428Z,9.0003
2023-05-02T00:07:17.615Z,9.0392
2023-05-02T00:08:25.649Z,9.0264
2023-05-02T00:09:33.677Z,9.0983
2023-05-02T00:10:41.889Z,9.2250
2023-05-02T00:11:49.829Z,9.3104
2023-05-02T00:12:57.897Z,9.3880
2023-05-02T00:14:05.918Z,9.3911
2023-05-02T00:15:14.187Z,9.3737
2023-05-02T00:16:21.996Z,9.4441
2023-05-02T00:17:30.116Z,9.4706
2023-05-02T00:18:38.001Z,9.4725
2023-05-02T00:19:46.047Z,9.5311
2023-05-02T00:20:54.051Z,9.5427
2023-05-02T00:22:02.289Z,9.4714
2023-05-02T00:23:10.357Z,9.3913
2023-05-02T00:24:18.373Z,9.3766
2023-05-02T00:25:26.485Z,9.3743
2023-05-02T00:26:34.505Z,9.2089
2023-05-02T00:27:42.564Z,9.1489
2023-05-02T00:28:50.668Z,9.2452
2023-05-02T00:29:59.088Z,9.1796
2023-05-02T00:31:06.814Z,9.0997
2023-05-02T00:32:14.780Z,9.2341
2023-05-02T00:33:22.729Z,9.1567
2023-05-02T00:34:30.734Z,9.1044
2023-05-02T00:35:38.787Z,9.1309
2023-05-02T00:36:46.986Z,9.1313
2023-05-02T00:37:55.072Z,9.1796
2023-05-02T00:39:03.141Z,9.1962
2023-05-02T00:40:11.182Z,9.2742
2023-05-02T00:41:19.232Z,9.2620
2023-05-02T00:42:27.352Z,9.1992
2023-05-02T00:43:35.448Z,9.1594
2023-05-02T00:44:43.460Z,9.1918
2023-05-02T00:45:51.504Z,9.2318
2023-05-02T00:46:59.579Z,9.2538
2023-05-02T00:48:07.507Z,9.1599
2023-05-02T00:49:15.547Z,9.0751
2023-05-02T00:50:23.594Z,9.0592
2023-05-02T00:51:31.739Z,8.9881
2023-05-02T00:52:39.985Z,8.9557
2023-05-02T00:53:47.951Z,8.9574
2023-05-02T00:54:55.905Z,8.9282
2023-05-02T00:56:03.860Z,8.8515
2023-05-02T00:57:11.914Z,8.8065
2023-05-02T00:58:20.124Z,8.7846
2023-05-02T00:59:28.240Z,8.8280
2023-05-02T01:00:36.217Z,8.8267
2023-05-02T01:01:44.321Z,8.9188
2023-05-02T01:02:52.431Z,8.8866
2023-05-02T01:04:00.597Z,8.8469
2023-05-02T01:05:08.458Z,8.8418
2023-05-02T01:06:16.493Z,8.8797
2023-05-02T01:07:24.545Z,8.9976
2023-05-02T01:08:32.606Z,8.9888
2023-05-02T01:09:40.533Z,8.9612
2023-05-02T01:10:48.596Z,8.9932
2023-05-02T01:11:56.645Z,9.0491
2023-05-02T01:13:04.824Z,9.1027
2023-05-02T01:14:12.920Z,9.1544
2023-05-02T01:15:20.940Z,9.1674
2023-05-02T01:16:29.069Z,9.1397
2023-05-02T01:17:37.287Z,9.2128
2023-05-02T01:18:45.102Z,9.1929
2023-05-02T01:19:53.230Z,9.2242
2023-05-02T01:21:01.211Z,9.2931
2023-05-02T01:22:09.227Z,9.1977
2023-05-02T01:23:17.303Z,9.1906
2023-05-02T01:24:25.250Z,9.1908
2023-05-02T01:25:33.287Z,9.1479
2023-05-02T01:26:41.378Z,9.1704
2023-05-02T01:27:49.512Z,9.3266
2023-05-02T01:28:57.568Z,9.4104
2023-05-02T01:30:05.667Z,9.3756
2023-05-02T01:31:13.919Z,9.2482
2023-05-02T01:32:21.737Z,9.2923
2023-05-02T01:33:29.813Z,9.3015
2023-05-02T01:34:37.890Z,9.2276
2023-05-02T01:35:45.907Z,9.2309
2023-05-02T01:36:53.966Z,9.2833
2023-05-02T01:38:02.024Z,9.2482
2023-05-02T01:39:09.945Z,9.1996
2023-05-02T01:40:18.046Z,9.2181
2023-05-02T01:41:26.048Z,9.2917
2023-05-02T01:42:34.439Z,9.3150
2023-05-02T01:43:42.459Z,9.3846
2023-05-02T01:44:50.382Z,9.3953
2023-05-02T01:45:58.446Z,9.3730
2023-05-02T01:47:06.454Z,9.2934
2023-05-02T01:48:14.572Z,9.3344
2023-05-02T01:49:22.643Z,9.2704
2023-05-02T01:50:30.680Z,9.2294
2023-05-02T01:51:38.669Z,9.2093
2023-05-02T01:52:46.949Z,9.2532
2023-05-02T01:53:54.657Z,9.2433
2023-05-02T01:55:02.735Z,9.2862
2023-05-02T01:56:10.770Z,9.2778
2023-05-02T01:57:18.966Z,9.3142
2023-05-02T01:58:27.376Z,9.1809
2023-05-02T01:59:35.159Z,9.1525
2023-05-02T02:00:43.262Z,9.2326
2023-05-02T02:01:51.176Z,9.2736
2023-05-02T02:02:59.294Z,9.2276
2023-05-02T02:04:07.308Z,9.3520
2023-05-02T02:05:15.476Z,9.3543
2023-05-02T02:06:23.470Z,9.3774
2023-05-02T02:07:31.453Z,9.4415
2023-05-02T02:08:39.374Z,9.4462
2023-05-02T02:09:47.431Z,9.4518
2023-05-02T02:10:55.534Z,9.5290
2023-05-02T02:12:03.864Z,9.6431
2023-05-02T02:13:11.721Z,9.7085
2023-05-02T02:14:19.911Z,9.7205
2023-05-02T02:15:27.938Z,9.7304
2023-05-02T02:16:35.924Z,9.7312
2023-05-02T02:17:43.983Z,9.8264
2023-05-02T02:18:52.003Z,9.8275
2023-05-02T02:20:00.322Z,9.7651
2023-05-02T02:21:08.119Z,9.8317
2023-05-02T02:22:16.307Z,9.8925
2023-05-02T02:23:24.088Z,9.9158
2023-05-02T02:24:32.141Z,9.9034
2023-05-02T02:25:40.242Z,9.9120
2023-05-02T02:26:48.393Z,9.9002
2023-05-02T02:27:56.696Z,9.9070
2023-05-02T02:29:04.528Z,9.9335
2023-05-02T02:30:12.679Z,9.8931
2023-05-02T02:31:20.745Z,9.8132
2023-05-02T02:32:28.699Z,9.8279
2023-05-02T02:33:36.745Z,9.8353
2023-05-02T02:34:44.803Z,9.8117
2023-05-02T02:35:52.908Z,9.7649
2023-05-02T02:37:01.025Z,9.6942
2023-05-02T02:38:09.017Z,9.7556
2023-05-02T02:39:17.018Z,9.8319
2023-05-02T02:40:24.949Z,9.8569
2023-05-02T02:41:33.018Z,9.7314
2023-05-02T02:42:41.042Z,9.7590
2023-05-02T02:43:49.243Z,9.7409
2023-05-02T02:44:57.382Z,9.8025
2023-05-02T02:46:05.549Z,9.8246
2023-05-02T02:47:13.393Z,9.6947
2023-05-02T02:48:21.509Z,9.7491
2023-05-02T02:49:29.528Z,9.7907
2023-05-02T02:50:37.552Z,9.8582
2023-05-02T02:51:45.721Z,9.8645
2023-05-02T02:52:53.677Z,9.8717
2023-05-02T02:54:03.225Z,9.6515
2023-05-02T02:55:14.514Z,9.4449
2023-05-02T02:56:22.589Z,9.4312
2023-05-02T02:57:30.613Z,9.3379
2023-05-02T02:58:38.794Z,9.4044
2023-05-02T02:59:46.846Z,9.4064
2023-05-02T03:00:54.914Z,9.5076
2023-05-02T03:02:03.250Z,9.5971
2023-05-02T03:03:11.241Z,9.6471
2023-05-02T03:04:19.149Z,9.7459
2023-05-02T03:05:27.410Z,9.7075
2023-05-02T03:06:35.303Z,9.7045
2023-05-02T03:07:43.359Z,9.7779
2023-05-02T03:08:51.265Z,9.7735
2023-05-02T03:09:59.607Z,9.7188
2023-05-02T03:11:07.308Z,9.6471
2023-05-02T03:12:15.384Z,9.6885
2023-05-02T03:13:23.572Z,9.6261
2023-05-02T03:14:31.568Z,9.6532
2023-05-02T03:15:39.667Z,9.7428
2023-05-02T03:16:47.770Z,9.6747
2023-05-02T03:17:55.907Z,9.6980
2023-05-02T03:19:03.759Z,9.7379
2023-05-02T03:20:12.100Z,9.8140
2023-05-02T03:21:19.959Z,9.8927
2023-05-02T03:22:27.938Z,9.9389
2023-05-02T03:23:36.054Z,9.9429
2023-05-02T03:24:43.941Z,9.8691
2023-05-02T03:25:51.994Z,9.8546
2023-05-02T03:27:00.069Z,9.9057
2023-05-02T03:28:08.205Z,9.9303
2023-05-02T03:29:16.234Z,9.9402
2023-05-02T03:30:24.565Z,9.9053
2023-05-02T03:31:32.406Z,9.9040
2023-05-02T03:32:40.573Z,9.9328
2023-05-02T03:33:48.666Z,9.9072
2023-05-02T03:34:56.702Z,9.9112
2023-05-02T03:36:04.603Z,9.9103
2023-05-02T03:37:12.905Z,9.8767
2023-05-02T03:38:20.756Z,9.8870
2023-05-02T03:39:28.625Z,9.8914
2023-05-02T03:40:36.693Z,9.8716
2023-05-02T03:41:44.827Z,9.8382
2023-05-02T03:42:52.922Z,9.8628
2023-05-02T03:44:01.031Z,9.8782
2023-05-02T03:45:09.072Z,9.8748
2023-05-02T03:46:17.208Z,9.8090
2023-05-02T03:47:25.313Z,9.7722
2023-05-02T03:48:33.159Z,9.6291
2023-05-02T03:49:41.453Z,9.5208
2023-05-02T03:50:49.334Z,9.4931
2023-05-02T03:51:57.341Z,9.5439
2023-05-02T03:53:05.442Z,9.5181
2023-05-02T03:54:13.303Z,9.4500
2023-05-02T03:55:21.376Z,9.6112
2023-05-02T03:56:29.420Z,9.5883
2023-05-02T03:57:37.711Z,9.4977
2023-05-02T03:58:45.694Z,9.4739
2023-05-02T03:59:53.733Z,9.6227
2023-05-02T04:01:01.792Z,9.6070
2023-05-02T04:02:09.882Z,9.5519
2023-05-02T04:03:17.994Z,9.5568
2023-05-02T04:04:26.077Z,9.7382
2023-05-02T04:05:34.056Z,9.7060
2023-05-02T04:06:42.305Z,9.6043
2023-05-02T04:07:50.178Z,9.6883
2023-05-02T04:08:58.037Z,9.7667
2023-05-02T04:10:06.085Z,9.7970
2023-05-02T04:11:14.138Z,9.7977
2023-05-02T04:12:22.195Z,9.8920
2023-05-02T04:13:30.432Z,9.9692
2023-05-02T04:14:38.472Z,9.9234
2023-05-02T04:15:46.505Z,9.8210
2023-05-02T04:16:54.641Z,9.8220
2023-05-02T04:18:02.658Z,9.8706
2023-05-02T04:19:10.675Z,9.8561
2023-05-02T04:20:18.719Z,9.8532
2023-05-02T04:21:26.886Z,9.8599
2023-05-02T04:22:35.000Z,9.8584
2023-05-02T04:23:42.919Z,9.8576
2023-05-02T04:24:50.816Z,9.8471
2023-05-02T04:25:58.858Z,9.8136
2023-05-02T04:27:06.928Z,9.7035
2023-05-02T04:28:15.088Z,9.5671
2023-05-02T04:29:23.177Z,9.6883
2023-05-02T04:30:31.388Z,9.7676
2023-05-02T04:31:39.269Z,9.8780
2023-05-02T04:32:47.369Z,9.8874
2023-05-02T04:33:55.407Z,9.9229
2023-05-02T04:35:03.438Z,9.9606
2023-05-02T04:36:11.708Z,9.9753
2023-05-02T04:37:20.875Z,9.9505
2023-05-02T04:38:32.323Z,10.0168
2023-05-02T04:39:40.422Z,9.9917
2023-05-02T04:40:48.436Z,9.9650
2023-05-02T04:41:56.629Z,9.9664
2023-05-02T04:43:04.755Z,9.9881
2023-05-02T04:44:12.976Z,10.0169
2023-05-02T04:45:20.789Z,10.0354
2023-05-02T04:46:29.002Z,10.0386
2023-05-02T04:47:36.905Z,9.9765
2023-05-02T04:48:45.007Z,9.8862
2023-05-02T04:49:53.000Z,9.7556
2023-05-02T04:51:01.165Z,9.6942
2023-05-02T04:52:09.176Z,9.5908
2023-05-02T04:53:17.118Z,9.5326
2023-05-02T04:54:25.226Z,9.4018
2023-05-02T04:55:33.227Z,9.3077
2023-05-02T04:56:41.470Z,9.4342
2023-05-02T04:57:49.492Z,9.5454
2023-05-02T04:58:57.608Z,9.5359
2023-05-02T05:00:05.640Z,9.5368
2023-05-02T05:01:13.671Z,9.5343
2023-05-02T05:02:22.008Z,9.5588
2023-05-02T05:03:29.930Z,9.5408
2023-05-02T05:04:37.876Z,9.5311
2023-05-02T05:05:45.856Z,9.6757
2023-05-02T05:06:53.965Z,9.5698
2023-05-02T05:08:01.862Z,9.5616
2023-05-02T05:09:09.922Z,9.4668
2023-05-02T05:10:17.972Z,9.5198
2023-05-02T05:11:26.171Z,9.5616
2023-05-02T05:12:34.195Z,9.6171
2023-05-02T05:13:42.139Z,9.7468
2023-05-02T05:14:50.345Z,9.8929
2023-05-02T05:15:58.446Z,9.9576
2023-05-02T05:17:06.428Z,10.0266
2023-05-02T05:18:14.657Z,10.0402
2023-05-02T05:19:22.574Z,10.0293
2023-05-02T05:20:30.647Z,9.9215
2023-05-02T05:21:38.654Z,9.9227
2023-05-02T05:22:46.627Z,10.0011
2023-05-02T05:23:54.635Z,10.0497
2023-05-02T05:25:02.705Z,10.2248
2023-05-02T05:26:11.033Z,10.3061
2023-05-02T05:27:18.953Z,10.3478
2023-05-02T05:28:26.980Z,10.3852
2023-05-02T05:29:35.122Z,10.3823
2023-05-02T05:30:43.098Z,10.3478
2023-05-02T05:31:51.232Z,10.4434
2023-05-02T05:32:59.324Z,10.5304
2023-05-02T05:34:07.323Z,10.6297
2023-05-02T05:35:15.441Z,10.7505
2023-05-02T05:36:23.678Z,10.7554
2023-05-02T05:37:31.318Z,10.7432
2023-05-02T05:38:39.317Z,10.7209
2023-05-02T05:39:47.380Z,10.7137
2023-05-02T05:40:55.562Z,10.7253
2023-05-02T05:42:03.675Z,10.6755
2023-05-02T05:43:11.728Z,10.7562
2023-05-02T05:44:19.752Z,10.8538
2023-05-02T05:45:27.776Z,10.9284
2023-05-02T05:46:35.982Z,10.8565
2023-05-02T05:47:43.955Z,10.8340
2023-05-02T05:48:52.158Z,10.8508
2023-05-02T05:50:00.215Z,10.8674
2023-05-02T05:51:07.927Z,10.9296
2023-05-02T05:52:16.050Z,11.0007
2023-05-02T05:53:24.026Z,11.0085
2023-05-02T05:54:32.242Z,10.9999
2023-05-02T05:55:42.165Z,11.0545
2023-05-02T05:56:53.308Z,10.9863
2023-05-02T05:58:01.236Z,11.0207
2023-05-02T05:59:09.424Z,10.9694
2023-05-02T06:00:17.302Z,11.0463
2023-05-02T06:01:25.345Z,10.9841
2023-05-02T06:02:33.608Z,11.0219
2023-05-02T06:03:41.743Z,10.9877
2023-05-02T06:04:49.483Z,10.7478
2023-05-02T06:05:57.527Z,10.7674
2023-05-02T06:07:05.552Z,10.7028
2023-05-02T06:08:13.803Z,10.8556
2023-05-02T06:09:21.786Z,10.8132
2023-05-02T06:10:29.825Z,10.6742
2023-05-02T06:11:37.910Z,10.8006
2023-05-02T06:12:47.147Z,10.9349
2023-05-02T06:13:58.835Z,10.9343
2023-05-02T06:15:07.019Z,11.0102
2023-05-02T06:16:15.097Z,11.0207
2023-05-02T06:17:23.101Z,11.1460
2023-05-02T06:18:30.956Z,11.2811
2023-05-02T06:19:39.055Z,11.3913
2023-05-02T06:20:47.085Z,11.4983
2023-05-02T06:21:55.267Z,11.5815
2023-05-02T06:23:03.305Z,11.6328
2023-05-02T06:24:11.599Z,11.5479
2023-05-02T06:25:19.381Z,11.5283
2023-05-02T06:26:27.465Z,11.4363
2023-05-02T06:27:35.556Z,11.3480
2023-05-02T06:28:43.635Z,11.4322
2023-05-02T06:29:51.616Z,11.6267
2023-05-02T06:30:59.774Z,11.7720
2023-05-02T06:32:07.948Z,11.8497
2023-05-02T06:33:15.707Z,11.9309
2023-05-02T06:34:23.697Z,12.0063
2023-05-02T06:35:31.772Z,12.0564
2023-05-02T06:36:39.950Z,12.1196
2023-05-02T06:37:48.046Z,11.9952
2023-05-02T06:38:56.050Z,11.9172
2023-05-02T06:40:04.427Z,11.8605
2023-05-02T06:41:12.168Z,11.6031
2023-05-02T06:42:20.199Z,11.5569
2023-05-02T06:43:28.314Z,11.5632
2023-05-02T06:44:36.310Z,11.6689
2023-05-02T06:45:44.345Z,11.6465
2023-05-02T06:46:52.470Z,11.5575
2023-05-02T06:48:00.515Z,11.5508
2023-05-02T06:49:08.424Z,11.6706
2023-05-02T06:50:16.536Z,11.7532
2023-05-02T06:51:24.484Z,11.7926
2023-05-02T06:52:32.644Z,11.6988
2023-05-02T06:53:40.797Z,11.6996
2023-05-02T06:54:48.745Z,11.7398
2023-05-02T06:55:56.896Z,11.9553
2023-05-02T06:57:04.826Z,12.0440
2023-05-02T06:58:12.934Z,12.1140
2023-05-02T06:59:20.979Z,12.1142
2023-05-02T07:00:29.068Z,12.0776
2023-05-02T07:01:37.202Z,11.9748
2023-05-02T07:02:45.062Z,11.8815
2023-05-02T07:03:53.141Z,12.1314
2023-05-02T07:05:01.140Z,12.1070
2023-05-02T07:06:09.364Z,12.0301
2023-05-02T07:07:17.320Z,12.1491
2023-05-02T07:08:25.421Z,12.1115
2023-05-02T07:09:33.460Z,12.1789
2023-05-02T07:10:41.672Z,12.2691
2023-05-02T07:11:49.682Z,12.5121
2023-05-02T07:12:57.592Z,12.5211
2023-05-02T07:14:05.719Z,12.3381
2023-05-02T07:15:13.674Z,12.3256
2023-05-02T07:16:21.860Z,12.2351
2023-05-02T07:17:29.784Z,12.2598
2023-05-02T07:18:37.771Z,12.4268
2023-05-02T07:19:45.855Z,12.3931
2023-05-02T07:20:53.842Z,12.2716
2023-05-02T07:22:02.218Z,12.4667
2023-05-02T07:23:10.177Z,12.6143
2023-05-02T07:24:18.167Z,12.6424
2023-05-02T07:25:26.147Z,12.4785
2023-05-02T07:26:34.185Z,12.4915
2023-05-02T07:27:42.324Z,12.6754
2023-05-02T07:28:50.340Z,12.9369
2023-05-02T07:31:06.369Z,12.8508
2023-05-02T07:32:14.537Z,12.9449
2023-05-02T07:33:22.447Z,12.8653
2023-05-02T07:34:30.404Z,12.4335
2023-05-02T07:35:38.447Z,12.1106
2023-05-02T07:36:46.627Z,12.1302
2023-05-02T07:37:54.649Z,12.4530
2023-05-02T07:39:02.830Z,12.3957
2023-05-02T07:40:10.819Z,12.5146
2023-05-02T07:41:18.896Z,12.8056
2023-05-02T07:42:26.900Z,12.7608
2023-05-02T07:43:35.092Z,12.7278
2023-05-02T07:44:42.966Z,12.9378
2023-05-02T07:45:51.062Z,12.7982
2023-05-02T07:46:59.110Z,12.9762
2023-05-02T07:48:07.070Z,13.1480
2023-05-02T07:49:15.116Z,13.2315
2023-05-02T07:50:23.140Z,13.0248
2023-05-02T07:51:31.289Z,12.8960
2023-05-02T07:52:39.394Z,12.9269
2023-05-02T07:53:47.369Z,12.9679
2023-05-02T07:54:55.571Z,12.9662
2023-05-02T07:56:03.526Z,12.6162
2023-05-02T07:57:11.545Z,12.4274
2023-05-02T07:58:19.601Z,12.3685
2023-05-02T07:59:27.763Z,12.5701
2023-05-02T08:00:35.797Z,12.7127
2023-05-02T08:01:43.749Z,12.6777
2023-05-02T08:02:51.796Z,12.7099
2023-05-02T08:03:59.917Z,12.6633
2023-05-02T08:05:08.068Z,12.6548
2023-05-02T08:06:15.999Z,12.5546
2023-05-02T08:07:24.030Z,12.3702
2023-05-02T08:08:32.077Z,12.4148
2023-05-02T08:09:40.133Z,12.5977
2023-05-02T08:10:48.253Z,12.8817
2023-05-02T08:11:56.265Z,12.8764
2023-05-02T08:13:04.309Z,12.7032
2023-05-02T08:14:12.374Z,12.7507
2023-05-02T08:15:20.655Z,12.8175
2023-05-02T08:16:28.465Z,12.8814
2023-05-02T08:17:36.472Z,12.9918
2023-05-02T08:18:44.528Z,12.7845
2023-05-02T08:19:52.671Z,12.8604
2023-05-02T08:21:00.727Z,13.0936
2023-05-02T08:22:08.741Z,13.1469
2023-05-02T08:23:16.817Z,13.1331
2023-05-02T08:24:24.955Z,13.1987
2023-05-02T08:25:32.982Z,13.4267
2023-05-02T08:26:41.020Z,13.4770
2023-05-02T08:27:48.990Z,13.3853
2023-05-02T08:28:57.071Z,13.4877
2023-05-02T08:30:05.458Z,13.4196
2023-05-02T08:31:13.193Z,13.5169
2023-05-02T08:32:21.130Z,13.7849
2023-05-02T08:33:29.183Z,13.9117
2023-05-02T08:34:37.300Z,13.6454
2023-05-02T08:35:45.405Z,13.4299
2023-05-02T08:36:53.497Z,13.4343
2023-05-02T08:38:01.489Z,13.4011
2023-05-02T08:39:09.550Z,13.5653
2023-05-02T08:40:24.686Z,13.8791
2023-05-02T08:41:30.577Z,14.0840
2023-05-02T08:42:38.586Z,14.1669
2023-05-02T08:43:46.618Z,14.2060
2023-05-02T08:44:54.523Z,14.4555
2023-05-02T08:46:02.596Z,14.6807
2023-05-02T08:47:10.762Z,14.4406
2023-05-02T08:48:18.818Z,14.2178
2023-05-02T08:49:26.875Z,14.4326
2023-05-02T08:50:34.871Z,14.8078
2023-05-02T08:51:42.989Z,15.1221
2023-05-02T08:52:51.020Z,15.2867
2023-05-02T08:53:59.097Z,15.0645
2023-05-02T08:55:07.077Z,14.9163
2023-05-02T08:56:15.213Z,14.8213
2023-05-02T08:57:23.321Z,14.7860
2023-05-02T08:58:31.250Z,14.6542
2023-05-02T08:59:39.310Z,14.6024
2023-05-02T09:00:47.390Z,14.5406
2023-05-02T09:01:55.421Z,14.5484
2023-05-02T09:03:03.550Z,14.5984
2023-05-02T09:04:11.602Z,14.6325
2023-05-02T09:05:19.710Z,14.8032
2023-05-02T09:06:27.794Z,14.9445
2023-05-02T09:07:35.728Z,14.8976
2023-05-02T09:08:43.875Z,14.9218
2023-05-02T09:09:51.849Z,15.0361
2023-05-02T09:10:59.910Z,15.2947
2023-05-02T09:12:07.988Z,15.5316
2023-05-02T09:13:16.006Z,15.9426
2023-05-02T09:14:23.957Z,16.0273
2023-05-02T09:15:32.020Z,15.6884
2023-05-02T09:16:40.208Z,15.6394
2023-05-02T09:17:48.257Z,15.6373
2023-05-02T09:18:56.268Z,15.6266
2023-05-02T09:20:04.292Z,15.4933
2023-05-02T09:21:12.835Z,15.4317
2023-05-02T09:22:20.444Z,15.3230
2023-05-02T09:23:28.480Z,15.6464
2023-05-02T09:24:36.574Z,16.0395
2023-05-02T09:25:44.652Z,16.3527
2023-05-02T09:26:52.694Z,16.5635
2023-05-02T09:28:00.678Z,16.6484
2023-05-02T09:29:08.665Z,16.6753
2023-05-02T09:30:16.775Z,16.5528
2023-05-02T09:31:43.845Z,16.2112
2023-05-02T09:32:37.888Z,16.4261
2023-05-02T09:33:45.808Z,16.6428
2023-05-02T09:34:53.932Z,16.7594
2023-05-02T09:36:01.954Z,16.5870
2023-05-02T09:37:10.338Z,16.5948
2023-05-02T09:38:18.129Z,16.2726
2023-05-02T09:39:26.420Z,16.7064
2023-05-02T09:40:34.141Z,17.0096
2023-05-02T09:41:42.181Z,17.2204
2023-05-02T09:42:50.206Z,17.2776
2023-05-02T09:43:58.218Z,17.1946
2023-05-02T09:45:06.270Z,16.6028
2023-05-02T09:46:14.393Z,16.4279
2023-05-02T09:47:22.480Z,16.4107
2023-05-02T09:48:30.579Z,16.2919
2023-05-02T09:49:38.533Z,16.4321
2023-05-02T09:50:46.621Z,16.2757
2023-05-02T09:51:54.672Z,16.1441
2023-05-02T09:53:02.758Z,16.1526
2023-05-02T09:54:10.804Z,16.1633
2023-05-02T09:55:18.830Z,16.3188
2023-05-02T09:56:27.083Z,16.5395
2023-05-02T09:57:34.853Z,16.7071
2023-05-02T09:58:42.938Z,16.6098
2023-05-02T09:59:50.947Z,16.8343
2023-05-02T10:00:59.094Z,16.7437
2023-05-02T10:02:07.395Z,16.6095
2023-05-02T10:03:15.329Z,17.0108
2023-05-02T10:04:23.394Z,16.9450
2023-05-02T10:05:31.309Z,17.3077
2023-05-02T10:06:39.460Z,17.4834
2023-05-02T10:07:47.512Z,17.8437
2023-05-02T10:08:55.509Z,19.1169
2023-05-02T10:10:03.587Z,19.5517
2023-05-02T10:11:11.805Z,19.8502
2023-05-02T10:12:19.585Z,20.8701
2023-05-02T10:13:27.628Z,21.7711
2023-05-02T10:14:35.681Z,21.8623
2023-05-02T10:15:43.880Z,22.6083
2023-05-02T10:16:51.875Z,23.3239
2023-05-02T10:18:00.045Z,22.3056
2023-05-02T10:19:08.155Z,20.5621
2023-05-02T10:20:16.289Z,19.8386
2023-05-02T10:21:24.088Z,19.5464
2023-05-02T10:22:32.224Z,19.5817
2023-05-02T10:23:40.211Z,19.8878
2023-05-02T10:24:48.210Z,19.4022
2023-05-02T10:25:57.114Z,19.1031
2023-05-02T10:27:09.143Z,18.7782
2023-05-02T10:28:17.379Z,18.3018
2023-05-02T10:29:25.216Z,17.4605
2023-05-02T10:30:33.351Z,17.4067
2023-05-02T10:31:43.027Z,17.4050
2023-05-02T10:32:54.388Z,17.2489
2023-05-02T10:34:02.452Z,16.9532
2023-05-02T10:35:10.496Z,16.7786
2023-05-02T10:36:18.573Z,16.5234
2023-05-02T10:37:26.506Z,16.5187
2023-05-02T10:38:34.581Z,16.5414
2023-05-02T10:39:42.670Z,16.4386
2023-05-02T10:40:50.867Z,16.3089
2023-05-02T10:41:58.654Z,16.2431
2023-05-02T10:43:06.713Z,16.2749
2023-05-02T10:44:14.854Z,16.1727
2023-05-02T10:45:22.871Z,16.3001
2023-05-02T10:46:31.003Z,16.3361
2023-05-02T10:47:39.079Z,16.2934
2023-05-02T10:48:47.060Z,16.1979
2023-05-02T10:49:55.195Z,16.1870
2023-05-02T10:51:03.189Z,15.9858
2023-05-02T10:52:11.264Z,15.8747
2023-05-02T10:53:19.398Z,15.8253
2023-05-02T10:54:27.351Z,16.0048
2023-05-02T10:55:35.339Z,16.1616
2023-05-02T10:56:43.361Z,16.2509
2023-05-02T10:57:51.403Z,16.2309
2023-05-02T10:58:59.548Z,16.1908
2023-05-02T11:00:07.656Z,16.4195
2023-05-02T11:01:15.641Z,16.5120
2023-05-02T11:02:24.064Z,16.5438
2023-05-02T11:03:31.892Z,16.7441
2023-05-02T11:04:39.953Z,16.8637
2023-05-02T11:05:47.959Z,16.9387
2023-05-02T11:06:56.102Z,17.1534
2023-05-02T11:08:04.015Z,17.1859
2023-05-02T11:09:12.105Z,17.2715
2023-05-02T11:10:20.066Z,17.1731
2023-05-02T11:11:28.121Z,17.2919
2023-05-02T11:12:36.157Z,17.4119
2023-05-02T11:13:44.223Z,17.4506
2023-05-02T11:14:52.369Z,17.5216
2023-05-02T11:16:00.517Z,17.6930
2023-05-02T11:17:08.478Z,17.9004
2023-05-02T11:18:16.617Z,18.0487
2023-05-02T11:19:24.675Z,18.4081
2023-05-02T11:20:32.670Z,18.7074
2023-05-02T11:21:40.671Z,18.9057
2023-05-02T11:22:48.748Z,18.7884
2023-05-02T11:23:56.786Z,19.1624
2023-05-02T11:25:04.818Z,19.2172
2023-05-02T11:26:12.836Z,19.3820
2023-05-02T11:27:20.885Z,19.7675
2023-05-02T11:28:29.053Z,19.3042
2023-05-02T11:29:37.194Z,18.9864
2023-05-02T11:30:45.192Z,18.6763
2023-05-02T11:31:53.251Z,18.5368
2023-05-02T11:33:01.298Z,18.5056
2023-05-02T11:34:09.508Z,18.9917
2023-05-02T11:35:17.521Z,18.7192
2023-05-02T11:36:25.526Z,17.9389
2023-05-02T11:37:33.532Z,17.4010
2023-05-02T11:38:41.615Z,17.1983
2023-05-02T11:39:49.545Z,17.0832
2023-05-02T11:40:57.588Z,17.0062
2023-05-02T11:42:05.607Z,17.1157
2023-05-02T11:43:13.776Z,17.2845
2023-05-02T11:44:21.754Z,17.3615
2023-05-02T11:45:30.125Z,17.4903
2023-05-02T11:46:38.091Z,17.6186
2023-05-02T11:47:46.132Z,17.7275
2023-05-02T11:48:54.100Z,18.1090
2023-05-02T11:50:02.280Z,18.3759
2023-05-02T11:51:10.220Z,18.7781
2023-05-02T11:52:18.301Z,19.2546
2023-05-02T11:53:26.458Z,19.8169
2023-05-02T11:54:34.399Z,20.4697
2023-05-02T11:55:42.420Z,21.5062
2023-05-02T11:56:50.409Z,22.0443
2023-05-02T11:57:58.474Z,22.9989
2023-05-02T11:59:06.549Z,22.7534
2023-05-02T12:00:14.845Z,22.1919
2023-05-02T12:01:23.025Z,21.7786
2023-05-02T12:02:31.109Z,21.5327
2023-05-02T12:03:38.997Z,21.5049
2023-05-02T12:04:46.969Z,22.9350
2023-05-02T12:05:55.192Z,23.4979
2023-05-02T12:07:03.250Z,24.4225
2023-05-02T12:08:11.127Z,24.9518
2023-05-02T12:09:19.184Z,25.3552
2023-05-02T12:10:27.363Z,25.6076
2023-05-02T12:11:35.270Z,25.7243
2023-05-02T12:12:43.347Z,25.9568
2023-05-02T12:13:51.498Z,26.3259
2023-05-02T12:14:59.569Z,26.9622
2023-05-02T12:16:07.585Z,27.7446
2023-05-02T12:17:15.584Z,27.3362
2023-05-02T12:18:23.626Z,26.0663
2023-05-02T12:19:31.768Z,25.1384
2023-05-02T12:20:39.742Z,23.7603
2023-05-02T12:21:47.893Z,22.8331
2023-05-02T12:22:56.133Z,21.7974
2023-05-02T12:24:03.825Z,21.1022
2023-05-02T12:25:11.866Z,20.6942
2023-05-02T12:26:20.015Z,20.5413
2023-05-02T12:27:28.005Z,20.1979
2023-05-02T12:28:36.244Z,19.4745
2023-05-02T12:29:44.394Z,18.7642
2023-05-02T12:30:52.351Z,17.8325
2023-05-02T12:32:00.625Z,17.2391
2023-05-02T12:33:08.450Z,16.9570
2023-05-02T12:34:16.483Z,16.6381
2023-05-02T12:35:24.537Z,16.3331
2023-05-02T12:36:32.563Z,16.0094
2023-05-02T12:37:40.774Z,15.7168
2023-05-02T12:38:48.580Z,15.4872
2023-05-02T12:39:56.662Z,15.3176
2023-05-02T12:41:04.711Z,15.0914
2023-05-02T12:42:12.902Z,14.8898
2023-05-02T12:43:20.961Z,14.7755
2023-05-02T12:44:28.856Z,14.6857
2023-05-02T12:45:37.056Z,14.6148
2023-05-02T12:46:45.197Z,14.5417
2023-05-02T12:47:53.272Z,14.3267
2023-05-02T12:49:01.215Z,14.1192
2023-05-02T12:50:09.390Z,13.9621
2023-05-02T12:51:17.359Z,13.7849
2023-05-02T12:52:25.341Z,13.6586
2023-05-02T12:53:33.305Z,13.4188
2023-05-02T12:54:41.369Z,13.1524
2023-05-02T12:55:49.441Z,13.0824
2023-05-02T12:56:57.681Z,13.1095
2023-05-02T12:58:05.648Z,12.9948
2023-05-02T12:59:13.721Z,13.0072
2023-05-02T13:00:21.830Z,12.9062
2023-05-02T13:01:29.938Z,12.6372
2023-05-02T13:02:38.039Z,12.5321
2023-05-02T13:03:46.052Z,12.5684
2023-05-02T13:04:53.998Z,12.3824
2023-05-02T13:06:02.113Z,12.1182
2023-05-02T13:07:10.178Z,12.2279
2023-05-02T13:08:18.065Z,12.4602
2023-05-02T13:09:26.193Z,12.5073
2023-05-02T13:10:34.277Z,12.4400
2023-05-02T13:11:42.654Z,12.6307
2023-05-02T13:12:50.490Z,12.7021
2023-05-02T13:13:59.225Z,12.9144
2023-05-02T13:15:06.612Z,12.9960
2023-05-02T13:16:14.691Z,12.9054
2023-05-02T13:17:22.792Z,12.9327
2023-05-02T13:18:30.815Z,12.8325
2023-05-02T13:19:40.539Z,12.8638
2023-05-02T13:20:51.656Z,12.9673
2023-05-02T13:21:59.747Z,13.1741
2023-05-02T13:23:07.752Z,13.3998
2023-05-02T13:24:15.803Z,13.5186
2023-05-02T13:25:23.984Z,13.6182
2023-05-02T13:26:31.999Z,13.7204
2023-05-02T13:27:40.094Z,13.6008
2023-05-02T13:28:48.120Z,13.7160
2023-05-02T13:29:56.183Z,13.9333
2023-05-02T13:31:04.259Z,14.1249
2023-05-02T13:32:12.322Z,14.1549
2023-05-02T13:33:20.389Z,14.2354
2023-05-02T13:34:28.408Z,14.4175
2023-05-02T13:35:36.400Z,14.4666
2023-05-02T13:36:44.474Z,14.7404
2023-05-02T13:37:52.544Z,15.0681
2023-05-02T13:39:00.678Z,15.3827
2023-05-02T13:40:08.978Z,15.6359
2023-05-02T13:41:16.808Z,15.8292
2023-05-02T13:42:24.822Z,16.0216
2023-05-02T13:43:33.044Z,16.1679
2023-05-02T13:44:41.127Z,17.0564
2023-05-02T13:45:49.216Z,17.2725
2023-05-02T13:46:57.075Z,17.5896
2023-05-02T13:48:05.169Z,18.3385
2023-05-02T13:49:13.253Z,18.7905
2023-05-02T13:50:21.204Z,18.9826
2023-05-02T13:51:29.237Z,19.1897
2023-05-02T13:52:37.406Z,19.2784
2023-05-02T13:53:45.513Z,19.9317
2023-05-02T13:54:53.494Z,20.0681